Time;durP1;ratioP1;P1;durP2;ratioP2;P2;SDS_P1;SDS_P2;PMS_P1;PMS_P2;Temp;Humidity;BMP_temperature;BMP_pressure;BME280_temperature;BME280_humidity;BME280_pressure;Samples;Min_cycle;Max_cycle;Signal;HPM_P1;HPM_P2
2022/01/04 00:00:21;;;;;;;2.50;2.00;;;9.80;99.90;;;;;;5019020;28;20530;-74
2022/01/04 00:02:47;;;;;;;3.07;1.60;;;9.90;99.90;;;;;;5022980;28;20220;-73
2022/01/04 00:05:13;;;;;;;4.00;1.97;;;9.80;99.90;;;;;;5025176;28;20225;-74
2022/01/04 00:07:38;;;;;;;2.83;2.10;;;9.80;99.90;;;;;;5046174;28;20228;-73
2022/01/04 00:10:08;;;;;;;1.60;1.50;;;9.80;99.90;;;;;;5037732;28;20240;-73
2022/01/04 00:15:19;;;;;;;1.90;1.50;;;9.80;99.90;;;;;;5005769;28;20448;-73
2022/01/04 00:17:45;;;;;;;1.17;1.07;;;9.90;99.90;;;;;;5008832;28;20452;-75
2022/01/04 00:20:11;;;;;;;1.23;1.13;;;9.90;99.90;;;;;;5011891;28;20792;-74
2022/01/04 00:22:37;;;;;;;4.87;1.63;;;9.90;99.90;;;;;;5027187;28;20227;-72
2022/01/04 00:25:04;;;;;;;1.60;1.50;;;9.80;99.90;;;;;;5010599;28;20479;-74
2022/01/04 00:27:30;;;;;;;1.33;1.23;;;9.90;99.90;;;;;;5011543;28;20467;-73
2022/01/04 00:29:56;;;;;;;1.60;1.00;;;9.90;99.90;;;;;;5002868;28;20445;-74
2022/01/04 00:32:22;;;;;;;1.00;0.90;;;9.80;99.90;;;;;;5010835;28;20221;-73
2022/01/04 00:34:47;;;;;;;1.37;1.00;;;9.90;99.90;;;;;;5031186;28;20443;-73
2022/01/04 00:37:13;;;;;;;0.83;0.80;;;9.90;99.90;;;;;;5040944;28;20243;-74
2022/01/04 00:39:39;;;;;;;1.27;1.03;;;9.90;99.90;;;;;;5028814;28;20213;-73
2022/01/04 00:42:05;;;;;;;1.10;1.00;;;9.90;99.90;;;;;;5010183;28;20583;-73
2022/01/04 00:44:30;;;;;;;1.20;1.10;;;9.90;99.90;;;;;;5011279;28;20217;-74
2022/01/04 00:46:56;;;;;;;0.90;0.90;;;9.90;99.90;;;;;;5027004;28;20544;-74
2022/01/04 00:49:22;;;;;;;1.17;0.80;;;9.90;99.90;;;;;;4993778;28;20221;-74
2022/01/04 00:51:51;;;;;;;0.80;0.63;;;9.90;99.90;;;;;;5018966;28;20244;-74
2022/01/04 00:54:17;;;;;;;0.80;0.80;;;9.90;99.90;;;;;;5028163;28;20221;-74
2022/01/04 00:56:44;;;;;;;1.47;1.10;;;9.90;99.90;;;;;;5007075;28;20510;-73
2022/01/04 00:59:10;;;;;;;0.97;0.97;;;9.90;99.90;;;;;;5022484;28;20488;-73
2022/01/04 01:01:36;;;;;;;1.03;0.80;;;9.90;99.90;;;;;;5030945;28;20455;-72
2022/01/04 01:04:04;;;;;;;1.10;0.90;;;9.90;99.90;;;;;;5046753;28;20220;-74
2022/01/04 01:06:29;;;;;;;1.07;1.00;;;9.90;99.90;;;;;;5045616;28;20474;-73
2022/01/04 01:08:55;;;;;;;0.50;0.50;;;10.00;99.90;;;;;;5036074;28;20458;-74
2022/01/04 01:11:21;;;;;;;0.90;0.80;;;10.00;99.90;;;;;;5051393;28;20232;-74
2022/01/04 01:13:47;;;;;;;0.57;0.50;;;10.00;99.90;;;;;;5029884;28;20715;-73
2022/01/04 01:16:13;;;;;;;1.00;0.70;;;10.00;99.90;;;;;;5045925;28;20458;-74
2022/01/04 01:18:39;;;;;;;0.70;0.70;;;10.00;99.90;;;;;;5038484;28;20696;-73
2022/01/04 01:21:06;;;;;;;0.70;0.60;;;10.00;99.90;;;;;;5060232;28;20464;-73
2022/01/04 01:23:33;;;;;;;0.60;0.53;;;9.90;99.90;;;;;;5056984;28;20220;-74
2022/01/04 01:25:59;;;;;;;0.80;0.80;;;10.00;99.90;;;;;;5047593;28;20989;-74
2022/01/04 01:28:26;;;;;;;0.63;0.50;;;10.00;99.90;;;;;;5065168;28;20826;-73
2022/01/04 01:30:52;;;;;;;0.80;0.70;;;10.00;99.90;;;;;;5044466;28;21009;-73
2022/01/04 01:33:18;;;;;;;0.80;0.60;;;10.00;99.90;;;;;;5057781;28;20443;-74
2022/01/04 01:35:45;;;;;;;0.40;0.40;;;10.00;99.90;;;;;;5045851;28;20795;-73
2022/01/04 01:38:12;;;;;;;0.40;0.40;;;10.00;99.90;;;;;;5007175;28;20444;-75
2022/01/04 01:40:38;;;;;;;1.20;0.90;;;10.00;99.90;;;;;;5039062;28;20554;-74
2022/01/04 01:43:04;;;;;;;0.67;0.67;;;10.00;99.90;;;;;;5060033;28;20459;-73
2022/01/04 01:45:30;;;;;;;0.70;0.60;;;10.00;99.90;;;;;;5009721;28;20460;-73
2022/01/04 01:47:56;;;;;;;0.67;0.50;;;10.00;99.90;;;;;;5009135;28;20450;-74
2022/01/04 01:50:22;;;;;;;0.50;0.50;;;10.00;99.90;;;;;;5010427;28;20240;-74
2022/01/04 01:52:49;;;;;;;0.67;0.67;;;10.00;99.90;;;;;;5037374;28;20258;-73
2022/01/04 01:55:18;;;;;;;0.60;0.60;;;10.00;99.90;;;;;;5058050;28;20597;-74
2022/01/04 01:57:44;;;;;;;1.67;0.70;;;10.00;99.90;;;;;;5062970;28;20455;-73
2022/01/04 02:00:14;;;;;;;0.60;0.60;;;10.00;99.90;;;;;;5022763;28;20451;-72
2022/01/04 02:02:40;;;;;;;0.50;0.50;;;10.00;99.90;;;;;;5032930;28;20461;-74
2022/01/04 02:05:07;;;;;;;0.60;0.60;;;10.00;99.90;;;;;;5064515;28;20449;-74
2022/01/04 02:07:33;;;;;;;0.90;0.57;;;10.00;99.90;;;;;;5047498;28;20985;-74
2022/01/04 02:10:07;;;;;;;0.50;0.50;;;10.00;99.90;;;;;;5043549;28;20862;-74
2022/01/04 02:12:34;;;;;;;1.00;0.40;;;10.00;99.90;;;;;;5059698;28;21009;-74
2022/01/04 02:15:00;;;;;;;0.50;0.47;;;10.00;99.90;;;;;;5049415;28;20457;-73
2022/01/04 02:17:26;;;;;;;0.80;0.60;;;10.00;99.90;;;;;;5050433;28;20458;-74
2022/01/04 02:19:55;;;;;;;0.50;0.50;;;10.10;99.90;;;;;;5048484;28;20461;-73
2022/01/04 02:22:21;;;;;;;0.60;0.60;;;10.00;99.90;;;;;;5044303;28;20790;-74
2022/01/04 02:24:47;;;;;;;1.50;0.60;;;10.00;99.90;;;;;;5019891;28;20955;-73
2022/01/04 02:27:14;;;;;;;0.60;0.60;;;10.00;99.90;;;;;;5045468;28;20450;-74
2022/01/04 02:29:40;;;;;;;0.60;0.60;;;10.10;99.90;;;;;;5048617;28;20239;-74
2022/01/04 02:32:06;;;;;;;1.27;1.00;;;10.10;99.90;;;;;;5037613;28;20553;-73
2022/01/04 02:34:32;;;;;;;0.80;0.80;;;10.00;99.90;;;;;;5045450;28;20243;-74
2022/01/04 02:36:58;;;;;;;1.57;1.20;;;10.00;99.90;;;;;;5044387;28;20459;-74
2022/01/04 02:39:24;;;;;;;0.80;0.80;;;10.00;99.90;;;;;;5045469;28;20212;-72
2022/01/04 02:41:49;;;;;;;0.90;0.90;;;10.10;99.90;;;;;;5029220;28;20998;-73
2022/01/04 02:44:15;;;;;;;1.30;1.10;;;10.10;99.90;;;;;;5052370;28;20215;-74
2022/01/04 02:46:41;;;;;;;1.13;1.13;;;10.10;99.90;;;;;;5041251;28;20269;-73
2022/01/04 02:49:07;;;;;;;1.03;1.00;;;10.10;99.90;;;;;;5048684;28;20216;-73
2022/01/04 02:51:32;;;;;;;1.63;1.50;;;10.10;99.90;;;;;;5054577;28;20252;-74
2022/01/04 02:53:58;;;;;;;1.43;1.10;;;10.10;99.90;;;;;;5044645;28;20252;-74
2022/01/04 02:56:24;;;;;;;3.53;1.30;;;10.10;99.90;;;;;;5047550;28;20228;-73
2022/01/04 02:58:49;;;;;;;1.10;1.00;;;10.10;99.90;;;;;;5036743;28;20220;-73
2022/01/04 03:01:15;;;;;;;1.10;1.10;;;10.10;99.90;;;;;;5027637;28;20672;-73
2022/01/04 03:03:41;;;;;;;1.63;1.47;;;10.10;99.90;;;;;;5028984;28;20262;-73
2022/01/04 03:06:11;;;;;;;2.47;1.40;;;10.20;99.90;;;;;;5044443;28;20221;-74
2022/01/04 03:08:37;;;;;;;2.70;1.90;;;10.10;99.90;;;;;;5032099;28;20452;-74
2022/01/04 03:11:03;;;;;;;1.40;1.30;;;10.20;99.90;;;;;;5061784;28;20570;-74
2022/01/04 03:13:28;;;;;;;1.30;1.27;;;10.20;99.90;;;;;;5064916;28;20220;-74
2022/01/04 03:15:54;;;;;;;2.17;1.97;;;10.20;99.90;;;;;;5064163;28;20223;-73
2022/01/04 03:18:20;;;;;;;1.20;1.10;;;10.20;99.90;;;;;;5052397;28;20211;-73
2022/01/04 03:20:45;;;;;;;1.60;1.50;;;10.20;99.90;;;;;;5038550;28;20216;-74
2022/01/04 03:23:11;;;;;;;1.10;1.10;;;10.20;99.90;;;;;;5054566;28;20246;-74
2022/01/04 03:25:38;;;;;;;1.43;1.33;;;10.20;99.90;;;;;;5067405;28;20238;-74
2022/01/04 03:28:04;;;;;;;2.07;1.57;;;10.20;99.90;;;;;;5061097;28;20220;-73
2022/01/04 03:30:30;;;;;;;1.33;1.23;;;10.20;99.90;;;;;;5035638;28;20499;-74
2022/01/04 03:32:56;;;;;;;2.47;1.37;;;10.20;99.90;;;;;;5060184;28;20455;-73
2022/01/04 03:35:22;;;;;;;1.60;1.50;;;10.30;99.90;;;;;;5030484;28;20489;-73
2022/01/04 03:37:50;;;;;;;1.40;1.30;;;10.30;99.90;;;;;;5041722;28;20224;-72
2022/01/04 03:40:16;;;;;;;1.27;1.17;;;10.30;99.90;;;;;;5053014;28;20450;-73
2022/01/04 03:42:41;;;;;;;1.00;1.00;;;10.30;99.90;;;;;;5048875;28;20457;-73
2022/01/04 03:45:08;;;;;;;1.00;1.00;;;10.30;99.90;;;;;;5033980;28;20216;-74
2022/01/04 03:47:34;;;;;;;0.93;0.90;;;10.30;99.90;;;;;;5066792;28;20216;-73
2022/01/04 03:49:59;;;;;;;1.13;1.03;;;10.30;99.90;;;;;;5068107;28;20450;-74
2022/01/04 03:52:25;;;;;;;1.07;0.97;;;10.30;99.90;;;;;;5043047;28;20444;-73
2022/01/04 03:54:51;;;;;;;0.90;0.90;;;10.30;99.90;;;;;;5031700;28;20693;-73
2022/01/04 03:57:17;;;;;;;1.20;1.10;;;10.30;99.90;;;;;;5035143;28;20457;-72
2022/01/04 03:59:42;;;;;;;1.43;1.07;;;10.30;99.90;;;;;;5048192;28;20209;-73
2022/01/04 04:02:08;;;;;;;1.17;0.90;;;10.30;99.90;;;;;;5031962;28;20623;-74
2022/01/04 04:04:34;;;;;;;0.83;0.83;;;10.30;99.90;;;;;;5048582;28;20251;-73
2022/01/04 04:06:59;;;;;;;1.30;1.10;;;10.30;99.90;;;;;;5034615;28;20262;-74
2022/01/04 04:09:25;;;;;;;1.10;1.00;;;10.30;99.90;;;;;;5038944;28;20217;-73
2022/01/04 04:11:51;;;;;;;1.27;1.17;;;10.30;99.90;;;;;;5066361;28;20232;-73
2022/01/04 04:14:17;;;;;;;0.97;0.97;;;10.30;99.90;;;;;;5068497;28;20224;-74
2022/01/04 04:16:43;;;;;;;1.07;1.00;;;10.30;99.90;;;;;;5055217;28;20231;-73
2022/01/04 04:19:08;;;;;;;1.47;1.37;;;10.30;99.90;;;;;;5032611;28;20231;-74
2022/01/04 04:21:34;;;;;;;1.40;1.00;;;10.30;99.90;;;;;;5047482;28;20231;-74
2022/01/04 04:24:00;;;;;;;1.13;1.03;;;10.30;99.90;;;;;;5047211;28;20272;-74
2022/01/04 04:26:26;;;;;;;1.13;1.10;;;10.30;99.90;;;;;;5048110;28;20231;-74
2022/01/04 04:28:51;;;;;;;2.40;1.07;;;10.30;99.90;;;;;;5039548;28;20212;-73
2022/01/04 04:31:17;;;;;;;1.43;1.23;;;10.30;99.90;;;;;;5029446;28;21049;-72
2022/01/04 04:33:43;;;;;;;0.80;0.80;;;10.30;99.90;;;;;;5030859;28;20324;-73
2022/01/04 04:36:09;;;;;;;1.33;1.23;;;10.30;99.90;;;;;;5056150;28;20231;-73
2022/01/04 04:38:35;;;;;;;1.40;1.30;;;10.30;99.90;;;;;;5047044;28;20294;-72
2022/01/04 04:41:01;;;;;;;1.10;1.00;;;10.30;99.90;;;;;;5030689;28;20221;-73
2022/01/04 04:43:27;;;;;;;1.83;1.07;;;10.30;99.90;;;;;;5024799;28;20470;-73
2022/01/04 04:45:53;;;;;;;1.40;1.30;;;10.30;99.90;;;;;;5058540;28;20219;-74
2022/01/04 04:48:19;;;;;;;1.30;1.20;;;10.20;99.90;;;;;;5067319;28;20988;-74
2022/01/04 04:50:44;;;;;;;1.53;1.43;;;10.20;99.90;;;;;;5048962;28;20224;-73
2022/01/04 04:53:10;;;;;;;0.90;0.90;;;10.30;99.90;;;;;;5030785;28;20208;-74
2022/01/04 04:55:36;;;;;;;1.87;1.37;;;10.30;99.90;;;;;;5045350;28;20208;-74
2022/01/04 04:58:02;;;;;;;2.77;1.13;;;10.30;99.90;;;;;;5060915;28;20581;-74
2022/01/04 05:00:27;;;;;;;1.37;1.10;;;10.30;99.90;;;;;;5023818;28;20213;-74
2022/01/04 05:02:53;;;;;;;1.33;1.23;;;10.20;99.90;;;;;;5046092;28;20247;-73
2022/01/04 05:05:19;;;;;;;0.90;0.90;;;10.20;99.90;;;;;;5046616;28;20236;-74
2022/01/04 05:07:44;;;;;;;1.27;1.17;;;10.20;99.90;;;;;;5049872;28;20220;-73
2022/01/04 05:10:10;;;;;;;1.10;1.00;;;10.20;99.90;;;;;;5048574;28;20246;-74
2022/01/04 05:12:36;;;;;;;1.20;1.10;;;10.20;99.90;;;;;;5058978;28;20213;-74
2022/01/04 05:15:03;;;;;;;2.50;1.50;;;10.30;99.90;;;;;;5057427;28;20226;-74
2022/01/04 05:17:30;;;;;;;0.70;0.70;;;10.20;99.90;;;;;;5050312;28;20290;-73
2022/01/04 05:19:55;;;;;;;1.13;1.03;;;10.20;99.90;;;;;;5029771;28;20565;-73
2022/01/04 05:22:21;;;;;;;1.07;0.97;;;10.20;99.90;;;;;;5029805;28;20572;-73
2022/01/04 05:24:46;;;;;;;1.90;1.50;;;10.20;99.90;;;;;;5013013;28;20302;-73
2022/01/04 05:27:12;;;;;;;1.27;1.13;;;10.20;99.90;;;;;;5028582;28;20220;-73
2022/01/04 05:29:38;;;;;;;1.37;1.27;;;10.20;99.90;;;;;;5055196;28;20223;-73
2022/01/04 05:32:04;;;;;;;1.33;1.20;;;10.20;99.90;;;;;;5045955;28;20232;-72
2022/01/04 05:34:30;;;;;;;0.90;0.90;;;10.20;99.90;;;;;;5038612;28;20269;-74
2022/01/04 05:36:55;;;;;;;1.10;1.10;;;10.20;99.90;;;;;;5049946;28;20538;-73
2022/01/04 05:39:21;;;;;;;1.83;1.00;;;10.20;99.90;;;;;;5046516;28;20726;-73
2022/01/04 05:41:47;;;;;;;1.47;0.83;;;10.20;99.90;;;;;;5041747;28;20221;-73
2022/01/04 05:44:13;;;;;;;1.27;1.17;;;10.20;99.90;;;;;;5061367;28;20701;-74
2022/01/04 05:46:39;;;;;;;0.80;0.70;;;10.20;99.90;;;;;;5032230;28;20220;-74
2022/01/04 05:49:04;;;;;;;0.90;0.90;;;10.20;99.90;;;;;;5042865;28;20234;-74
2022/01/04 05:51:30;;;;;;;1.10;1.10;;;10.20;99.90;;;;;;5029816;28;20499;-73
2022/01/04 05:53:56;;;;;;;0.90;0.70;;;10.30;99.90;;;;;;5043768;28;20224;-73
2022/01/04 05:56:21;;;;;;;0.80;0.80;;;10.20;99.90;;;;;;5021200;28;20230;-73
2022/01/04 05:58:47;;;;;;;1.87;1.30;;;10.20;99.90;;;;;;5021536;28;20213;-73
2022/01/04 06:01:13;;;;;;;0.73;0.70;;;10.20;99.90;;;;;;5049772;28;20216;-73
2022/01/04 06:03:38;;;;;;;0.70;0.70;;;10.20;99.90;;;;;;5030808;28;20216;-74
2022/01/04 06:06:04;;;;;;;0.73;0.73;;;10.20;99.90;;;;;;5027624;28;20699;-72
2022/01/04 06:08:34;;;;;;;0.90;0.60;;;10.20;99.90;;;;;;5029102;28;20224;-74
2022/01/04 06:11:01;;;;;;;0.77;0.77;;;10.20;99.90;;;;;;5025583;28;20295;-73
2022/01/04 06:16:10;;;;;;;0.93;0.87;;;10.20;99.90;;;;;;5010381;28;20444;-74
2022/01/04 06:18:37;;;;;;;0.60;0.60;;;10.20;99.90;;;;;;5010887;28;20917;-74
2022/01/04 06:21:05;;;;;;;0.70;0.70;;;10.20;99.90;;;;;;5033840;28;20231;-73
2022/01/04 06:23:31;;;;;;;1.00;0.63;;;10.20;99.90;;;;;;5055696;28;20981;-74
2022/01/04 06:25:57;;;;;;;3.33;0.60;;;10.20;99.90;;;;;;5057850;28;20482;-74
2022/01/04 06:28:23;;;;;;;0.57;0.57;;;10.20;99.90;;;;;;5065880;28;20228;-73
2022/01/04 06:30:52;;;;;;;1.43;0.80;;;10.20;99.90;;;;;;5065289;28;20474;-73
2022/01/04 06:33:22;;;;;;;0.70;0.70;;;10.20;99.90;;;;;;5040732;28;20628;-72
2022/01/04 06:35:49;;;;;;;1.17;0.83;;;10.20;99.90;;;;;;5015441;28;20454;-71
2022/01/04 06:38:16;;;;;;;0.83;0.83;;;10.20;99.90;;;;;;5038929;28;20446;-73
2022/01/04 06:40:41;;;;;;;0.70;0.70;;;10.20;99.90;;;;;;5047670;28;20486;-73
2022/01/04 06:43:07;;;;;;;1.00;0.90;;;10.20;99.90;;;;;;5038889;28;20489;-74
2022/01/04 06:45:33;;;;;;;2.10;0.80;;;10.20;99.90;;;;;;5054651;28;20782;-74
2022/01/04 06:47:59;;;;;;;1.33;1.07;;;10.20;99.90;;;;;;5045751;28;20604;-74
2022/01/04 06:50:25;;;;;;;0.80;0.70;;;10.10;99.90;;;;;;5050055;28;20299;-73
2022/01/04 06:52:51;;;;;;;0.47;0.47;;;10.10;99.90;;;;;;5046478;28;20251;-73
2022/01/04 06:55:16;;;;;;;1.07;0.60;;;10.00;99.90;;;;;;5041538;28;20243;-74
2022/01/04 06:57:43;;;;;;;0.40;0.40;;;10.10;99.90;;;;;;5043058;28;20240;-74
2022/01/04 07:00:10;;;;;;;1.70;0.57;;;10.00;99.90;;;;;;5038091;28;20213;-74
2022/01/04 07:02:35;;;;;;;0.63;0.63;;;10.00;99.90;;;;;;5034469;28;20486;-74
2022/01/04 07:05:01;;;;;;;1.73;0.70;;;10.00;99.90;;;;;;5038322;28;20935;-74
2022/01/04 07:07:27;;;;;;;0.60;0.60;;;10.10;99.90;;;;;;5028758;28;20299;-73
2022/01/04 07:09:53;;;;;;;2.63;0.60;;;10.00;99.90;;;;;;5047635;28;21058;-74
2022/01/04 07:12:18;;;;;;;0.43;0.37;;;10.00;99.90;;;;;;5042254;28;20235;-72
2022/01/04 07:14:44;;;;;;;0.70;0.33;;;9.90;99.90;;;;;;5055045;28;20303;-73
2022/01/04 07:17:10;;;;;;;0.40;0.40;;;9.80;99.90;;;;;;5039233;28;20276;-74
2022/01/04 07:19:35;;;;;;;0.50;0.37;;;9.80;99.90;;;;;;5044418;28;20217;-73
2022/01/04 07:22:01;;;;;;;0.70;0.50;;;9.80;99.90;;;;;;5042466;28;20224;-74
2022/01/04 07:24:27;;;;;;;4.37;2.60;;;9.70;99.90;;;;;;5042622;28;20239;-74
2022/01/04 07:26:53;;;;;;;1.53;1.43;;;9.60;99.90;;;;;;5027195;28;20256;-73
2022/01/04 07:29:18;;;;;;;0.87;0.83;;;9.60;99.90;;;;;;5029730;28;20219;-73
2022/01/04 07:31:44;;;;;;;0.60;0.60;;;9.50;99.90;;;;;;5049150;28;20227;-73
2022/01/04 07:34:10;;;;;;;0.60;0.60;;;9.50;99.90;;;;;;5047197;28;20302;-74
2022/01/04 07:36:35;;;;;;;1.33;0.50;;;9.50;99.90;;;;;;5040610;28;20224;-74
2022/01/04 07:39:01;;;;;;;1.27;0.50;;;9.60;99.90;;;;;;5031255;28;20220;-74
2022/01/04 07:41:29;;;;;;;1.80;1.03;;;9.60;99.90;;;;;;5046089;28;20774;-74
2022/01/04 07:43:54;;;;;;;0.50;0.50;;;9.60;99.90;;;;;;5041850;28;20538;-74
2022/01/04 07:46:21;;;;;;;0.80;0.50;;;9.60;99.90;;;;;;5043019;28;20538;-74
2022/01/04 07:48:49;;;;;;;1.20;0.63;;;9.60;99.90;;;;;;5028186;28;20549;-74
2022/01/04 07:51:14;;;;;;;0.70;0.67;;;9.60;99.90;;;;;;5030389;28;20495;-72
2022/01/04 07:53:40;;;;;;;2.20;1.10;;;9.60;99.90;;;;;;5032038;28;20494;-73
2022/01/04 07:56:06;;;;;;;0.93;0.83;;;9.60;99.90;;;;;;5045086;28;20231;-74
2022/01/04 07:58:32;;;;;;;0.67;0.60;;;9.60;99.90;;;;;;5038996;28;20263;-74
2022/01/04 08:00:58;;;;;;;0.70;0.53;;;9.60;99.90;;;;;;5026380;28;20213;-74
2022/01/04 08:03:23;;;;;;;0.43;0.43;;;9.50;99.90;;;;;;5045246;28;20450;-74
2022/01/04 08:05:49;;;;;;;0.40;0.30;;;9.50;99.90;;;;;;5036194;28;20696;-73
2022/01/04 08:08:15;;;;;;;0.57;0.57;;;9.50;99.90;;;;;;5045664;28;20598;-74
2022/01/04 08:10:41;;;;;;;0.60;0.50;;;9.50;99.90;;;;;;5030175;28;20235;-73
2022/01/04 08:13:06;;;;;;;0.70;0.47;;;9.50;99.90;;;;;;5043358;28;20268;-72
2022/01/04 08:15:32;;;;;;;0.80;0.57;;;9.60;99.90;;;;;;5046853;28;20283;-75
2022/01/04 08:17:58;;;;;;;2.10;0.90;;;9.60;99.90;;;;;;5026324;28;20216;-74
2022/01/04 08:20:24;;;;;;;0.80;0.73;;;9.50;99.90;;;;;;5044078;28;20228;-74
2022/01/04 08:22:50;;;;;;;0.70;0.50;;;9.50;99.90;;;;;;5038277;28;20459;-73
2022/01/04 08:25:16;;;;;;;0.60;0.60;;;9.50;99.90;;;;;;5024032;28;20217;-74
2022/01/04 08:27:41;;;;;;;1.23;0.60;;;9.50;99.90;;;;;;5037717;28;20753;-74
2022/01/04 08:30:10;;;;;;;0.70;0.70;;;9.50;99.90;;;;;;5039659;28;20251;-74
2022/01/04 08:32:37;;;;;;;0.97;0.87;;;9.50;99.90;;;;;;5044264;28;20233;-74
2022/01/04 08:35:05;;;;;;;1.10;0.90;;;9.40;99.90;;;;;;5054542;28;20451;-74
2022/01/04 08:37:30;;;;;;;1.37;0.70;;;9.40;99.90;;;;;;5029485;28;20482;-74
2022/01/04 08:39:56;;;;;;;0.70;0.63;;;9.40;99.90;;;;;;5026356;28;20451;-74
2022/01/04 08:42:25;;;;;;;0.93;0.90;;;9.40;99.90;;;;;;5032056;28;20224;-74
2022/01/04 08:44:54;;;;;;;0.50;0.50;;;9.40;99.90;;;;;;5037937;28;20447;-74
2022/01/04 08:47:20;;;;;;;0.40;0.40;;;9.30;99.90;;;;;;5049323;28;20452;-73
2022/01/04 08:49:45;;;;;;;0.43;0.40;;;9.30;99.90;;;;;;5032762;28;20455;-74
2022/01/04 08:52:11;;;;;;;0.50;0.37;;;9.30;99.90;;;;;;5024096;28;20266;-73
2022/01/04 08:54:39;;;;;;;0.50;0.40;;;9.30;99.90;;;;;;5036896;28;20215;-73
2022/01/04 08:57:06;;;;;;;0.40;0.30;;;9.30;99.90;;;;;;5046955;28;20230;-73
2022/01/04 08:59:33;;;;;;;0.50;0.50;;;9.20;99.90;;;;;;5023396;28;20454;-74
2022/01/04 09:01:59;;;;;;;0.60;0.60;;;9.20;99.90;;;;;;5026942;28;20471;-72
2022/01/04 09:04:25;;;;;;;0.80;0.50;;;9.20;99.90;;;;;;5045155;28;20475;-74
2022/01/04 09:06:51;;;;;;;0.60;0.60;;;9.20;99.90;;;;;;5044734;28;20486;-72
2022/01/04 09:09:17;;;;;;;0.87;0.50;;;9.20;99.90;;;;;;5029388;28;20220;-73
2022/01/04 09:11:45;;;;;;;0.53;0.53;;;9.20;99.90;;;;;;5037161;28;20235;-73
2022/01/04 09:19:23;;;;;;;0.50;0.50;;;9.30;99.90;;;;;;5033425;28;20342;-74
2022/01/04 09:21:49;;;;;;;0.60;0.53;;;9.30;99.90;;;;;;5043922;28;20994;-72
2022/01/04 09:24:15;;;;;;;1.17;0.70;;;9.30;99.90;;;;;;5029711;28;20470;-73
2022/01/04 09:26:41;;;;;;;1.17;0.63;;;9.20;99.90;;;;;;5026613;28;20474;-73
2022/01/04 09:29:07;;;;;;;1.10;0.60;;;9.30;99.90;;;;;;5029881;28;20452;-73
2022/01/04 09:31:33;;;;;;;0.50;0.50;;;9.30;99.90;;;;;;5022338;28;20232;-74
2022/01/04 09:34:02;;;;;;;0.80;0.50;;;9.30;99.90;;;;;;5022472;28;20887;-72
2022/01/04 09:36:34;;;;;;;0.60;0.60;;;9.30;99.90;;;;;;5025816;28;20490;-74
2022/01/04 09:39:01;;;;;;;0.60;0.60;;;9.30;99.90;;;;;;5021831;28;20465;-73
2022/01/04 09:41:27;;;;;;;1.60;0.57;;;9.20;99.90;;;;;;5026072;28;20478;-73
2022/01/04 09:43:53;;;;;;;0.40;0.40;;;9.20;99.90;;;;;;5012901;28;20463;-74
2022/01/04 09:46:19;;;;;;;0.50;0.50;;;9.20;99.90;;;;;;5022060;28;20453;-72
2022/01/04 09:48:46;;;;;;;0.60;0.50;;;9.20;99.90;;;;;;4997307;28;20335;-73
2022/01/04 09:51:14;;;;;;;0.40;0.40;;;9.20;99.90;;;;;;5001473;28;20849;-73
2022/01/04 09:53:39;;;;;;;0.40;0.40;;;9.20;99.90;;;;;;5020054;28;20543;-73
2022/01/04 09:56:07;;;;;;;0.40;0.40;;;9.30;99.90;;;;;;5002006;28;20620;-72
2022/01/04 09:58:33;;;;;;;1.23;0.50;;;9.30;99.90;;;;;;5001683;28;20224;-71
2022/01/04 10:00:59;;;;;;;2.70;2.00;;;9.20;99.90;;;;;;5025648;28;20471;-73
2022/01/04 10:03:30;;;;;;;8.37;3.80;;;9.30;99.90;;;;;;5009090;28;20487;-73
2022/01/04 10:06:05;;;;;;;2.30;1.67;;;9.30;99.90;;;;;;5001296;28;20485;-74
2022/01/04 10:08:31;;;;;;;1.20;1.10;;;9.30;99.90;;;;;;5011804;28;20467;-73
2022/01/04 10:11:06;;;;;;;2.80;1.60;;;9.30;99.90;;;;;;4998729;28;21065;-72
2022/01/04 10:13:32;;;;;;;1.83;1.47;;;9.20;99.90;;;;;;5006074;28;20478;-73
2022/01/04 10:15:59;;;;;;;1.83;1.50;;;9.20;99.90;;;;;;5003192;28;20988;-72
2022/01/04 10:18:26;;;;;;;2.20;1.93;;;9.20;99.90;;;;;;5003197;28;20481;-73
2022/01/04 10:20:52;;;;;;;0.83;0.80;;;9.10;99.90;;;;;;4987425;28;20461;-73
2022/01/04 10:23:25;;;;;;;1.07;0.97;;;9.20;99.90;;;;;;4976053;28;20452;-72
2022/01/04 10:26:00;;;;;;;0.93;0.80;;;9.20;99.90;;;;;;5005549;28;20229;-73
2022/01/04 10:28:31;;;;;;;0.80;0.80;;;9.10;99.90;;;;;;5004727;28;20454;-73
2022/01/04 10:31:09;;;;;;;0.70;0.70;;;9.10;99.90;;;;;;5016135;28;20479;-73
2022/01/04 10:33:36;;;;;;;0.60;0.50;;;9.10;99.90;;;;;;5014057;28;20550;-74
2022/01/04 10:36:14;;;;;;;0.67;0.50;;;9.10;99.90;;;;;;5021974;28;20502;-73
2022/01/04 10:38:42;;;;;;;0.73;0.73;;;9.10;99.90;;;;;;5007777;28;20967;-73
2022/01/04 10:41:22;;;;;;;0.80;0.70;;;9.00;99.90;;;;;;5022879;28;20452;-72
2022/01/04 10:43:55;;;;;;;0.60;0.57;;;9.00;99.90;;;;;;5028849;28;20452;-72
2022/01/04 10:46:43;;;;;;;1.37;1.07;;;9.00;99.90;;;;;;5032609;28;20471;-73
2022/01/04 10:49:16;;;;;;;0.70;0.63;;;9.00;99.90;;;;;;5017230;28;20444;-73
2022/01/04 10:51:41;;;;;;;1.67;0.90;;;9.00;99.90;;;;;;5008004;28;20492;-72
2022/01/04 10:54:07;;;;;;;1.00;0.97;;;8.90;99.90;;;;;;5027250;28;20452;-73
2022/01/04 10:56:38;;;;;;;0.70;0.60;;;9.00;99.90;;;;;;5041374;28;20224;-73
2022/01/04 10:59:09;;;;;;;1.00;0.73;;;9.00;99.90;;;;;;5025533;28;20236;-73
2022/01/04 11:01:53;;;;;;;3.10;0.60;;;9.00;99.90;;;;;;5007363;28;20448;-74
2022/01/04 11:04:20;;;;;;;2.40;0.83;;;9.00;99.90;;;;;;5026323;28;20459;-73
2022/01/04 11:06:47;;;;;;;0.87;0.87;;;9.00;99.90;;;;;;5045875;28;20563;-74
2022/01/04 11:09:14;;;;;;;1.20;1.10;;;9.00;99.90;;;;;;5041519;28;20515;-72
2022/01/04 11:11:41;;;;;;;0.60;0.60;;;9.00;99.90;;;;;;5026059;28;20545;-71
2022/01/04 11:14:09;;;;;;;0.70;0.60;;;9.00;99.90;;;;;;5036518;28;20533;-71
2022/01/04 11:16:34;;;;;;;0.50;0.50;;;9.00;99.90;;;;;;5019331;28;20496;-71
2022/01/04 11:19:02;;;;;;;0.50;0.50;;;9.00;99.90;;;;;;5016977;28;20546;-72
2022/01/04 11:21:34;;;;;;;0.63;0.63;;;9.00;99.90;;;;;;5015099;28;20315;-72
2022/01/04 11:24:03;;;;;;;0.60;0.60;;;9.00;99.90;;;;;;5011243;28;20946;-73
2022/01/04 11:26:29;;;;;;;0.70;0.70;;;9.00;99.90;;;;;;5013298;28;20447;-74
2022/01/04 11:28:56;;;;;;;0.60;0.60;;;8.90;99.90;;;;;;5015073;28;20468;-71
2022/01/04 11:31:22;;;;;;;1.87;0.80;;;8.90;99.90;;;;;;5033572;28;20531;-72
2022/01/04 11:33:57;;;;;;;2.77;0.70;;;8.90;99.90;;;;;;5031630;28;20464;-71
2022/01/04 11:36:24;;;;;;;0.70;0.67;;;8.90;99.90;;;;;;5042450;28;20292;-73
2022/01/04 11:38:50;;;;;;;0.80;0.80;;;8.90;99.90;;;;;;5026347;28;20546;-72
2022/01/04 11:41:42;;;;;;;1.53;0.97;;;8.90;99.90;;;;;;5040764;28;20496;-72
2022/01/04 11:44:19;;;;;;;1.90;0.93;;;8.90;99.90;;;;;;5019508;28;20219;-73
2022/01/04 11:47:00;;;;;;;0.50;0.50;;;8.90;99.90;;;;;;5043749;28;20455;-72
2022/01/04 11:49:26;;;;;;;0.70;0.70;;;9.00;99.90;;;;;;5064426;28;20455;-71
2022/01/04 11:51:52;;;;;;;2.30;2.10;;;9.00;99.90;;;;;;5051079;28;20848;-73
2022/01/04 11:54:26;;;;;;;2.13;2.03;;;8.90;99.90;;;;;;5029849;28;20557;-71
2022/01/04 11:56:56;;;;;;;5.87;2.73;;;8.90;99.90;;;;;;5043388;28;21009;-72
2022/01/04 11:59:58;;;;;;;32.57;18.67;;;8.90;99.90;;;;;;5026136;28;20460;-71
2022/01/04 12:02:26;;;;;;;19.17;11.93;;;8.90;99.90;;;;;;4932281;28;20462;-72
2022/01/04 12:04:52;;;;;;;21.90;13.07;;;8.90;99.90;;;;;;5005391;28;20518;-73
2022/01/04 12:07:41;;;;;;;49.97;29.33;;;8.80;99.90;;;;;;5035146;28;20463;-73
2022/01/04 12:10:22;;;;;;;41.07;25.33;;;8.80;99.90;;;;;;5028230;28;20299;-73
2022/01/04 12:12:55;;;;;;;14.93;10.60;;;8.80;99.90;;;;;;5027945;28;20514;-73
2022/01/04 12:15:33;;;;;;;22.57;13.93;;;8.80;99.90;;;;;;5046673;28;20867;-73
2022/01/04 12:18:03;;;;;;;16.20;11.17;;;8.80;99.90;;;;;;5058632;28;20461;-73
2022/01/04 12:20:46;;;;;;;9.33;7.63;;;8.80;99.90;;;;;;5047644;28;20454;-74
2022/01/04 12:23:27;;;;;;;6.43;3.80;;;8.80;99.90;;;;;;5054723;28;20469;-73
2022/01/04 12:28:41;;;;;;;17.70;9.27;;;8.80;99.90;;;;;;5047592;28;20842;-73
2022/01/04 12:31:13;;;;;;;22.60;16.50;;;8.80;99.90;;;;;;5059102;28;20454;-71
2022/01/04 12:33:41;;;;;;;18.30;13.00;;;8.80;99.90;;;;;;5060703;28;20523;-73
2022/01/04 12:36:08;;;;;;;21.57;14.93;;;8.80;99.90;;;;;;5057049;28;20473;-73
2022/01/04 12:38:34;;;;;;;31.47;21.63;;;8.80;99.90;;;;;;5064240;28;20476;-71
2022/01/04 12:41:01;;;;;;;29.47;22.83;;;8.70;99.90;;;;;;5063338;28;20451;-73
2022/01/04 12:43:27;;;;;;;14.80;13.20;;;8.70;99.90;;;;;;5033448;28;20280;-72
2022/01/04 12:45:57;;;;;;;11.60;10.40;;;8.70;99.90;;;;;;5052231;28;20531;-73
2022/01/04 12:48:53;;;;;;;8.60;7.00;;;8.70;99.90;;;;;;5063143;28;20457;-73
2022/01/04 12:51:26;;;;;;;5.63;4.40;;;8.60;99.90;;;;;;5030293;28;20454;-72
2022/01/04 12:53:57;;;;;;;4.43;3.43;;;8.70;99.90;;;;;;5048068;28;21042;-73
2022/01/04 12:56:24;;;;;;;4.20;3.73;;;8.60;99.90;;;;;;5034263;28;20925;-73
2022/01/04 12:58:50;;;;;;;3.77;3.17;;;8.60;99.90;;;;;;5043935;28;20993;-71
2022/01/04 13:01:24;;;;;;;4.37;3.97;;;8.60;99.90;;;;;;5025114;28;20463;-71
2022/01/04 13:03:50;;;;;;;3.90;3.50;;;8.60;99.90;;;;;;5026841;28;20240;-72